Time;durP1;ratioP1;P1;durP2;ratioP2;P2;SDS_P1;SDS_P2;PMS_P1;PMS_P2;Temp;Humidity;BMP_temperature;BMP_pressure;BME280_temperature;BME280_humidity;BME280_pressure;Samples;Min_cycle;Max_cycle;Signal;HPM_P1;HPM_P2
2022/03/20 00:00:25;;;;;;;7.63;4.30;;;4.90;99.90;;;;;;5106767;27;20047;-69
2022/03/20 00:02:51;;;;;;;7.55;4.03;;;4.80;99.90;;;;;;5101678;28;20085;-69
2022/03/20 00:05:17;;;;;;;7.90;4.45;;;4.90;99.90;;;;;;5100968;27;20046;-69
2022/03/20 00:07:44;;;;;;;8.18;4.00;;;4.80;99.90;;;;;;5133836;27;20083;-69
2022/03/20 00:10:10;;;;;;;7.90;4.20;;;4.90;99.90;;;;;;5100050;27;20055;-69
2022/03/20 00:12:37;;;;;;;8.43;4.03;;;4.90;99.90;;;;;;5098830;28;20908;-69
2022/03/20 00:15:03;;;;;;;7.10;3.78;;;4.80;99.90;;;;;;5099867;27;20489;-69
2022/03/20 00:17:29;;;;;;;6.93;3.85;;;4.90;99.90;;;;;;5103082;28;20397;-69
2022/03/20 00:19:55;;;;;;;13.38;5.45;;;4.80;99.90;;;;;;5100943;27;20040;-69
2022/03/20 00:22:22;;;;;;;6.55;3.90;;;4.80;99.90;;;;;;5103553;28;20462;-69
2022/03/20 00:24:47;;;;;;;5.82;3.50;;;4.80;99.90;;;;;;5104310;27;20066;-69
2022/03/20 00:27:14;;;;;;;8.25;4.07;;;4.80;99.90;;;;;;5098062;28;20078;-69
2022/03/20 00:29:40;;;;;;;7.03;4.03;;;4.80;99.90;;;;;;5100557;28;20078;-69
2022/03/20 00:32:08;;;;;;;10.88;3.90;;;4.70;99.90;;;;;;5100495;28;20067;-69
2022/03/20 00:34:35;;;;;;;7.25;3.95;;;4.80;99.90;;;;;;5100690;27;20040;-69
2022/03/20 00:37:01;;;;;;;7.38;3.83;;;4.80;99.90;;;;;;5098971;28;20044;-69
2022/03/20 00:39:26;;;;;;;7.35;4.13;;;4.70;99.90;;;;;;5102344;28;20386;-69
2022/03/20 00:41:52;;;;;;;7.55;4.40;;;4.80;99.90;;;;;;5102176;28;20031;-69
2022/03/20 00:44:18;;;;;;;8.57;4.30;;;4.70;99.90;;;;;;5108822;28;20078;-70
2022/03/20 00:46:43;;;;;;;4.72;3.72;;;4.70;99.90;;;;;;5108829;27;20031;-69
2022/03/20 00:49:31;;;;;;;9.10;4.20;;;4.60;99.90;;;;;;5097778;28;20039;-69
2022/03/20 00:51:57;;;;;;;7.40;4.93;;;4.70;99.90;;;;;;5100068;28;20395;-70
2022/03/20 00:54:22;;;;;;;7.68;4.47;;;4.60;99.90;;;;;;5081986;28;20077;-70
2022/03/20 00:56:48;;;;;;;10.82;4.97;;;4.60;99.90;;;;;;5099131;28;20044;-69
2022/03/20 00:59:14;;;;;;;9.20;4.40;;;4.60;99.90;;;;;;5100309;28;20044;-69
2022/03/20 01:01:41;;;;;;;5.00;3.90;;;4.50;99.90;;;;;;5100878;28;20122;-69
2022/03/20 01:04:07;;;;;;;11.57;4.18;;;4.50;99.90;;;;;;5098787;28;20050;-69
2022/03/20 01:06:32;;;;;;;7.72;4.07;;;4.50;99.90;;;;;;5101930;28;20118;-69
2022/03/20 01:08:58;;;;;;;10.80;5.00;;;4.40;99.90;;;;;;5103102;28;20127;-69
2022/03/20 01:11:24;;;;;;;8.98;4.88;;;4.40;99.90;;;;;;5098743;28;20093;-69
2022/03/20 01:13:50;;;;;;;9.52;5.05;;;4.40;99.90;;;;;;5101787;28;20035;-69
2022/03/20 01:16:15;;;;;;;7.55;4.40;;;4.30;99.90;;;;;;5107636;28;20059;-69
2022/03/20 01:18:41;;;;;;;8.05;4.45;;;4.30;99.90;;;;;;5100154;28;20035;-69
2022/03/20 01:21:10;;;;;;;7.85;4.70;;;4.30;99.90;;;;;;5097870;28;20414;-69
2022/03/20 01:23:35;;;;;;;9.35;4.55;;;4.20;99.90;;;;;;5130426;27;20462;-69
2022/03/20 01:26:01;;;;;;;9.98;5.22;;;4.20;99.90;;;;;;5102117;28;20130;-69
2022/03/20 01:28:26;;;;;;;11.02;4.72;;;4.20;99.90;;;;;;5102578;28;20032;-69
2022/03/20 01:30:55;;;;;;;9.63;5.00;;;4.10;99.90;;;;;;5097838;28;20035;-69
2022/03/20 01:33:21;;;;;;;8.50;4.82;;;4.10;99.90;;;;;;5134097;27;20039;-70
2022/03/20 01:35:46;;;;;;;12.45;5.28;;;4.10;99.90;;;;;;5100991;28;20035;-70
2022/03/20 01:38:18;;;;;;;13.25;5.93;;;4.00;99.90;;;;;;5099898;28;20036;-69
2022/03/20 01:40:44;;;;;;;9.15;5.07;;;4.10;99.90;;;;;;5098719;28;20043;-69
2022/03/20 01:43:09;;;;;;;7.70;4.88;;;4.00;99.90;;;;;;5101149;28;20039;-70
2022/03/20 01:45:35;;;;;;;10.25;5.30;;;4.00;99.90;;;;;;5102909;28;20042;-70
2022/03/20 01:48:00;;;;;;;9.35;4.75;;;4.00;99.90;;;;;;5102435;28;20051;-69
2022/03/20 01:50:32;;;;;;;9.23;5.07;;;4.00;99.90;;;;;;5103821;27;20178;-69
2022/03/20 01:52:58;;;;;;;7.82;4.95;;;4.00;99.90;;;;;;5105070;27;20482;-69
2022/03/20 01:55:25;;;;;;;8.23;5.00;;;4.00;99.90;;;;;;5103864;28;20148;-69
2022/03/20 01:57:54;;;;;;;11.07;6.18;;;3.90;99.90;;;;;;5100463;28;20039;-69
2022/03/20 02:00:22;;;;;;;9.77;5.43;;;3.90;99.90;;;;;;5102421;28;20051;-69
2022/03/20 02:02:47;;;;;;;8.38;5.30;;;3.90;99.90;;;;;;5107389;28;20035;-69
2022/03/20 02:05:14;;;;;;;9.88;5.18;;;3.80;99.90;;;;;;5132991;27;20050;-70
2022/03/20 02:07:40;;;;;;;10.82;5.53;;;3.70;99.90;;;;;;5102510;28;20051;-69
2022/03/20 02:10:07;;;;;;;9.43;5.95;;;3.80;99.90;;;;;;5108073;27;20035;-69
2022/03/20 02:12:35;;;;;;;9.55;5.85;;;3.70;99.90;;;;;;5101805;27;20141;-69
2022/03/20 02:15:02;;;;;;;11.88;5.53;;;3.80;99.90;;;;;;5133055;27;20046;-69
2022/03/20 02:17:30;;;;;;;10.60;5.80;;;3.70;99.90;;;;;;5106478;27;20031;-69
2022/03/20 02:19:56;;;;;;;11.55;5.78;;;3.70;99.90;;;;;;5103516;27;20130;-69
2022/03/20 02:22:22;;;;;;;10.57;5.53;;;3.70;99.90;;;;;;5106246;27;20639;-69
2022/03/20 02:24:51;;;;;;;12.63;6.20;;;3.70;99.90;;;;;;5103192;28;20131;-69
2022/03/20 02:27:23;;;;;;;14.57;7.25;;;3.70;99.90;;;;;;5102465;27;20044;-69
2022/03/20 02:29:55;;;;;;;8.27;5.50;;;3.70;99.90;;;;;;5109856;28;20105;-70
2022/03/20 02:32:29;;;;;;;12.25;6.63;;;3.70;99.90;;;;;;5103624;27;20432;-69
2022/03/20 02:34:56;;;;;;;8.63;5.72;;;3.70;99.90;;;;;;5103911;28;20039;-69
2022/03/20 02:37:24;;;;;;;13.18;6.20;;;3.70;99.90;;;;;;5104458;27;20084;-69
2022/03/20 02:39:54;;;;;;;12.38;6.38;;;3.80;99.90;;;;;;5106240;27;20515;-69
2022/03/20 02:42:21;;;;;;;11.27;6.63;;;3.70;99.90;;;;;;5102680;28;20768;-68
2022/03/20 02:45:11;;;;;;;10.73;6.05;;;3.70;99.90;;;;;;5099890;27;20044;-69
2022/03/20 02:47:40;;;;;;;11.43;6.45;;;3.70;99.90;;;;;;5101972;28;20468;-70
2022/03/20 02:50:08;;;;;;;13.02;7.22;;;3.70;99.90;;;;;;5103956;27;20044;-69
2022/03/20 02:52:54;;;;;;;11.43;6.28;;;3.60;99.90;;;;;;5103922;27;20027;-69
2022/03/20 02:55:21;;;;;;;10.75;6.78;;;3.70;99.90;;;;;;5101659;27;20032;-69
2022/03/20 02:57:48;;;;;;;12.75;6.70;;;3.60;99.90;;;;;;5102176;28;20196;-69
2022/03/20 03:00:17;;;;;;;9.05;6.38;;;3.60;99.90;;;;;;5105507;27;20040;-69
2022/03/20 03:02:45;;;;;;;9.88;6.45;;;3.60;99.90;;;;;;5107756;27;20091;-68
2022/03/20 03:05:16;;;;;;;12.75;6.65;;;3.60;99.90;;;;;;5101370;28;20058;-69
2022/03/20 03:13:17;;;;;;;14.32;6.63;;;3.50;99.90;;;;;;5135701;27;20048;-69
2022/03/20 03:15:43;;;;;;;11.80;8.00;;;3.60;99.90;;;;;;5134469;27;20035;-69
2022/03/20 03:18:09;;;;;;;12.48;6.78;;;3.50;99.90;;;;;;5103957;27;20482;-69
2022/03/20 03:20:36;;;;;;;11.23;7.18;;;3.40;99.90;;;;;;5100347;28;20043;-69
2022/03/20 03:23:03;;;;;;;13.15;6.97;;;3.40;99.90;;;;;;5097922;28;20039;-69
2022/03/20 03:25:30;;;;;;;15.10;7.78;;;3.40;99.90;;;;;;5100279;28;20048;-69
2022/03/20 03:27:56;;;;;;;12.88;7.75;;;3.40;99.90;;;;;;5101734;28;20043;-69
2022/03/20 03:30:21;;;;;;;14.43;7.32;;;3.30;99.90;;;;;;5099676;28;20043;-69
2022/03/20 03:32:47;;;;;;;11.23;7.65;;;3.30;99.90;;;;;;5102357;27;20035;-69
2022/03/20 03:38:00;;;;;;;12.50;8.33;;;3.10;99.90;;;;;;5106637;28;20449;-69
2022/03/20 03:40:26;;;;;;;13.68;8.43;;;3.20;99.90;;;;;;5100831;28;20494;-69
2022/03/20 03:42:52;;;;;;;14.05;7.93;;;3.10;99.90;;;;;;5101846;27;20058;-69
2022/03/20 03:45:18;;;;;;;14.45;8.40;;;3.00;99.90;;;;;;5100860;28;20516;-69
2022/03/20 03:47:43;;;;;;;14.90;8.48;;;3.10;99.90;;;;;;5101416;28;20074;-69
2022/03/20 03:50:10;;;;;;;15.43;7.93;;;3.00;99.90;;;;;;5098461;28;20120;-69
2022/03/20 03:52:38;;;;;;;11.48;8.00;;;3.10;99.90;;;;;;5100434;27;20044;-69
2022/03/20 03:55:06;;;;;;;15.05;7.95;;;3.00;99.90;;;;;;5102813;27;20125;-69
2022/03/20 03:57:32;;;;;;;12.30;8.13;;;3.00;99.90;;;;;;5099534;28;20036;-69
2022/03/20 03:59:58;;;;;;;11.40;8.85;;;2.90;99.90;;;;;;5132733;27;20043;-69
2022/03/20 04:02:24;;;;;;;15.15;8.68;;;2.90;99.90;;;;;;5132756;27;20050;-69
2022/03/20 04:04:54;;;;;;;12.57;8.48;;;2.90;99.90;;;;;;5088175;28;20500;-69
2022/03/20 04:07:21;;;;;;;16.73;8.10;;;2.90;99.90;;;;;;5132942;27;20043;-69
2022/03/20 04:09:50;;;;;;;16.70;8.77;;;2.90;99.90;;;;;;5098627;28;20055;-69
2022/03/20 04:12:15;;;;;;;13.90;8.77;;;3.00;99.90;;;;;;5099906;27;20032;-69
2022/03/20 04:14:42;;;;;;;13.00;8.95;;;3.00;99.90;;;;;;5104281;27;20039;-69
2022/03/20 04:17:11;;;;;;;12.98;8.93;;;3.00;99.90;;;;;;5102939;28;20040;-69
2022/03/20 04:19:37;;;;;;;15.93;9.93;;;3.00;99.90;;;;;;5100531;28;20047;-69
2022/03/20 04:22:04;;;;;;;18.35;9.15;;;3.00;99.90;;;;;;5101915;28;20028;-69
2022/03/20 04:24:30;;;;;;;16.40;9.48;;;3.00;99.90;;;;;;5100525;28;20453;-69
2022/03/20 04:26:55;;;;;;;12.68;8.90;;;2.90;99.90;;;;;;5100740;28;20068;-69
2022/03/20 04:29:22;;;;;;;15.70;8.35;;;3.30;99.90;;;;;;5129175;27;20071;-69
2022/03/20 04:31:48;;;;;;;14.07;9.32;;;3.00;99.90;;;;;;5099499;28;20089;-69
2022/03/20 04:34:14;;;;;;;13.45;8.95;;;3.00;99.90;;;;;;5101514;27;20032;-69
2022/03/20 04:36:41;;;;;;;15.20;9.23;;;2.90;99.90;;;;;;5099721;28;21117;-69
2022/03/20 04:39:07;;;;;;;16.40;10.20;;;2.90;99.90;;;;;;5103307;27;20039;-69
2022/03/20 04:41:33;;;;;;;14.27;8.80;;;2.90;99.90;;;;;;5097242;28;20529;-69
2022/03/20 04:43:59;;;;;;;14.75;8.98;;;3.00;99.90;;;;;;5081978;28;20064;-69
2022/03/20 04:46:25;;;;;;;19.67;10.18;;;2.90;99.90;;;;;;5082271;28;20044;-69
2022/03/20 04:59:48;;;;;;;16.15;11.30;;;2.90;99.90;;;;;;5101490;27;20043;-69
2022/03/20 05:02:13;;;;;;;15.05;10.55;;;2.90;99.90;;;;;;5099380;27;20039;-69
2022/03/20 05:04:39;;;;;;;16.73;10.95;;;2.80;99.90;;;;;;5100290;27;20032;-70
2022/03/20 05:07:05;;;;;;;14.65;10.50;;;2.80;99.90;;;;;;5099440;27;20031;-69
2022/03/20 05:15:07;;;;;;;15.48;10.80;;;2.70;99.90;;;;;;5097762;28;20044;-69
2022/03/20 05:17:33;;;;;;;16.20;10.18;;;2.70;99.90;;;;;;5102193;28;20024;-69
2022/03/20 05:19:58;;;;;;;17.60;11.70;;;2.70;99.90;;;;;;5112680;28;20038;-69
2022/03/20 05:22:24;;;;;;;17.27;10.85;;;2.70;99.90;;;;;;5129511;27;20438;-69
2022/03/20 05:24:50;;;;;;;17.10;11.00;;;2.70;99.90;;;;;;5128052;27;20044;-69
2022/03/20 05:27:15;;;;;;;15.45;10.90;;;2.70;99.90;;;;;;5103128;27;20044;-69
2022/03/20 05:29:41;;;;;;;14.70;10.32;;;3.00;99.90;;;;;;5100285;28;20039;-69
2022/03/20 05:32:08;;;;;;;18.33;11.57;;;2.90;99.90;;;;;;5099525;28;20392;-69
2022/03/20 05:34:35;;;;;;;17.23;12.07;;;2.70;99.90;;;;;;5099365;28;20044;-69
2022/03/20 05:37:01;;;;;;;18.40;11.38;;;2.70;99.90;;;;;;5103365;28;20476;-69
2022/03/20 05:39:27;;;;;;;18.52;11.13;;;2.70;99.90;;;;;;5098260;28;20078;-69
2022/03/20 05:41:53;;;;;;;17.88;10.65;;;2.60;99.90;;;;;;5102089;28;20031;-69
2022/03/20 05:44:21;;;;;;;16.70;12.75;;;2.70;99.90;;;;;;5099025;28;20826;-69
2022/03/20 05:46:51;;;;;;;18.52;12.35;;;2.70;99.90;;;;;;5097753;28;20059;-69
2022/03/20 05:49:22;;;;;;;20.30;12.45;;;2.70;99.90;;;;;;5098305;28;20486;-70
2022/03/20 05:51:48;;;;;;;16.30;10.57;;;2.70;99.90;;;;;;5101898;28;20084;-69
2022/03/20 05:54:15;;;;;;;15.70;11.27;;;2.70;99.90;;;;;;5100987;28;20040;-69
2022/03/20 05:59:33;;;;;;;21.65;12.38;;;2.80;99.90;;;;;;5130647;27;20088;-69
2022/03/20 06:01:59;;;;;;;19.60;12.00;;;2.80;99.90;;;;;;5104865;28;20126;-69
2022/03/20 06:04:24;;;;;;;16.20;10.80;;;2.90;99.90;;;;;;5099970;28;20122;-69
2022/03/20 06:06:50;;;;;;;20.85;11.82;;;2.90;99.90;;;;;;5102665;28;20459;-69
2022/03/20 06:09:16;;;;;;;15.63;10.57;;;2.90;99.90;;;;;;5127994;27;20048;-69
2022/03/20 06:11:42;;;;;;;18.35;12.18;;;2.90;99.90;;;;;;5100550;28;20486;-69
2022/03/20 06:14:08;;;;;;;20.58;12.15;;;3.00;99.90;;;;;;5100370;28;20595;-69
2022/03/20 06:16:36;;;;;;;18.73;12.38;;;3.10;99.90;;;;;;5097173;28;20541;-69
2022/03/20 06:19:05;;;;;;;18.52;11.55;;;3.30;99.90;;;;;;5099690;28;20039;-69
2022/03/20 06:21:30;;;;;;;15.10;11.23;;;3.60;99.90;;;;;;5128380;27;20072;-69
2022/03/20 06:23:56;;;;;;;18.95;12.20;;;3.70;99.90;;;;;;5100201;28;20083;-70
2022/03/20 06:26:23;;;;;;;15.68;10.75;;;3.90;99.90;;;;;;5130358;27;20470;-70
2022/03/20 06:28:49;;;;;;;16.02;10.80;;;4.10;99.90;;;;;;5101397;28;20088;-70
2022/03/20 06:31:16;;;;;;;20.58;11.93;;;4.10;99.90;;;;;;5100347;28;20039;-70
2022/03/20 06:33:43;;;;;;;13.82;10.40;;;4.30;99.90;;;;;;5097024;28;20605;-70
2022/03/20 06:36:10;;;;;;;15.88;11.50;;;4.50;99.90;;;;;;5133197;27;20750;-69
2022/03/20 06:38:36;;;;;;;21.50;12.45;;;4.40;99.90;;;;;;5132418;27;20092;-70
2022/03/20 06:41:06;;;;;;;17.13;11.60;;;4.50;99.90;;;;;;5101445;27;20070;-70
2022/03/20 06:43:37;;;;;;;19.58;12.50;;;4.70;99.90;;;;;;5101333;27;20068;-69
2022/03/20 06:46:06;;;;;;;24.17;11.85;;;4.70;99.90;;;;;;5107854;27;20478;-70
2022/03/20 06:48:36;;;;;;;17.10;11.48;;;4.80;99.90;;;;;;5100957;27;20047;-70
2022/03/20 06:51:04;;;;;;;14.73;11.10;;;4.90;99.90;;;;;;5103739;27;20482;-70
2022/03/20 06:53:30;;;;;;;16.73;11.35;;;5.10;99.90;;;;;;5104865;27;20024;-69
2022/03/20 06:55:56;;;;;;;17.15;12.18;;;5.20;99.90;;;;;;5102738;27;20522;-70
2022/03/20 06:58:23;;;;;;;17.92;12.23;;;5.20;99.90;;;;;;5107466;27;20082;-70
2022/03/20 07:00:51;;;;;;;17.95;11.70;;;5.30;99.90;;;;;;5100744;27;20056;-70
2022/03/20 07:03:17;;;;;;;16.17;12.15;;;5.30;99.90;;;;;;5102668;28;20040;-70
2022/03/20 07:05:43;;;;;;;17.15;11.88;;;4.80;99.90;;;;;;5132156;27;20051;-70
2022/03/20 07:08:10;;;;;;;15.43;11.40;;;4.70;99.90;;;;;;5105656;27;20036;-70
2022/03/20 07:10:36;;;;;;;15.13;11.60;;;4.70;99.90;;;;;;5104328;28;20039;-69
2022/03/20 07:15:50;;;;;;;19.00;13.85;;;4.50;99.90;;;;;;5102648;28;20047;-70
2022/03/20 07:18:19;;;;;;;19.83;12.65;;;4.20;99.90;;;;;;5101896;27;20067;-70
2022/03/20 07:20:47;;;;;;;17.30;13.98;;;4.10;99.90;;;;;;5101503;28;20126;-70
2022/03/20 07:23:13;;;;;;;18.38;12.23;;;4.20;99.90;;;;;;5129750;27;20574;-70
2022/03/20 07:31:10;;;;;;;17.63;12.80;;;4.60;99.90;;;;;;5101311;28;20040;-70
2022/03/20 07:33:36;;;;;;;17.02;12.88;;;4.60;99.90;;;;;;5102658;27;20032;-70
2022/03/20 07:36:04;;;;;;;18.60;12.70;;;4.70;99.90;;;;;;5105175;27;20043;-70
2022/03/20 07:38:30;;;;;;;18.45;12.10;;;5.10;99.90;;;;;;5100092;28;20043;-70
2022/03/20 07:40:56;;;;;;;17.52;12.07;;;5.50;99.20;;;;;;5104021;27;20042;-70
2022/03/20 07:43:21;;;;;;;18.20;13.13;;;5.30;98.00;;;;;;5103350;27;20038;-70
2022/03/20 07:45:47;;;;;;;18.52;13.52;;;5.30;98.40;;;;;;5107367;27;20463;-70
2022/03/20 07:48:13;;;;;;;19.00;12.13;;;5.20;99.40;;;;;;5128768;27;20059;-70
2022/03/20 07:50:40;;;;;;;18.67;13.15;;;5.30;96.90;;;;;;5106812;27;20086;-70
2022/03/20 07:53:06;;;;;;;20.73;14.07;;;5.30;97.50;;;;;;5106184;27;20120;-70
2022/03/20 07:55:34;;;;;;;15.27;12.20;;;5.20;97.20;;;;;;5104491;27;20072;-70
2022/03/20 07:58:00;;;;;;;18.05;13.82;;;5.00;96.10;;;;;;5104642;27;20036;-69
2022/03/20 08:00:25;;;;;;;18.00;13.32;;;4.90;97.50;;;;;;5103114;28;20046;-70
2022/03/20 08:02:51;;;;;;;19.23;12.63;;;5.00;96.30;;;;;;5103086;28;20043;-70
2022/03/20 08:05:17;;;;;;;17.27;12.60;;;4.80;96.50;;;;;;5100843;28;20048;-70
2022/03/20 08:07:43;;;;;;;19.42;14.15;;;4.80;96.00;;;;;;5101509;27;20499;-70
2022/03/20 08:10:12;;;;;;;16.17;12.40;;;4.80;96.70;;;;;;5128228;27;20032;-70
2022/03/20 08:12:38;;;;;;;20.30;13.60;;;4.80;96.80;;;;;;5101308;28;20397;-70
2022/03/20 08:15:06;;;;;;;20.25;13.52;;;4.90;96.30;;;;;;5089179;28;20063;-70
2022/03/20 08:17:41;;;;;;;18.63;13.88;;;5.00;96.80;;;;;;5098346;27;20028;-70
2022/03/20 08:20:07;;;;;;;17.20;12.80;;;5.00;95.50;;;;;;5093202;28;20047;-70
2022/03/20 08:22:33;;;;;;;20.70;13.48;;;5.10;94.60;;;;;;5097125;27;20329;-70
2022/03/20 08:24:59;;;;;;;18.73;13.77;;;5.20;93.60;;;;;;5100881;28;20464;-70
2022/03/20 08:27:25;;;;;;;21.17;13.63;;;5.20;93.60;;;;;;5098781;28;20035;-69
2022/03/20 08:29:52;;;;;;;18.48;13.75;;;5.30;95.70;;;;;;5099992;28;20656;-70
2022/03/20 08:32:17;;;;;;;21.67;13.32;;;5.40;94.10;;;;;;5101402;28;20110;-70
2022/03/20 08:34:43;;;;;;;18.73;12.93;;;5.50;93.30;;;;;;5098106;28;20063;-70
2022/03/20 08:37:08;;;;;;;18.45;12.73;;;5.50;93.70;;;;;;5137562;27;20044;-70
2022/03/20 08:39:34;;;;;;;21.65;14.48;;;5.50;92.80;;;;;;5097491;28;20039;-70
2022/03/20 08:42:00;;;;;;;17.77;12.05;;;5.50;93.00;;;;;;5129975;27;20423;-70
2022/03/20 08:44:28;;;;;;;20.20;13.80;;;5.60;92.00;;;;;;5101220;28;20035;-70
2022/03/20 08:46:53;;;;;;;20.00;13.75;;;5.60;92.30;;;;;;5100647;27;20485;-70
2022/03/20 08:49:19;;;;;;;17.08;13.40;;;5.70;91.90;;;;;;5128348;27;20105;-70
2022/03/20 08:51:45;;;;;;;18.10;13.45;;;6.00;91.00;;;;;;5099913;27;20521;-70
2022/03/20 08:54:11;;;;;;;20.15;13.57;;;6.10;90.10;;;;;;5130383;27;20482;-70
2022/03/20 08:56:38;;;;;;;20.38;14.68;;;6.20;90.80;;;;;;5097481;28;20043;-70
2022/03/20 08:59:04;;;;;;;22.60;14.07;;;6.30;89.30;;;;;;5098192;28;20081;-70
2022/03/20 09:01:30;;;;;;;21.58;14.07;;;6.50;89.90;;;;;;5101344;28;20058;-70
2022/03/20 09:03:56;;;;;;;20.45;15.35;;;6.60;90.40;;;;;;5102084;27;20040;-70
2022/03/20 09:06:22;;;;;;;21.20;13.25;;;6.70;88.00;;;;;;5099429;28;20035;-70
2022/03/20 09:08:49;;;;;;;21.48;14.50;;;6.80;87.40;;;;;;5100424;28;20040;-70
2022/03/20 09:11:16;;;;;;;18.42;13.68;;;6.90;86.40;;;;;;5100999;28;20047;-70
2022/03/20 09:13:42;;;;;;;19.25;14.43;;;6.90;84.20;;;;;;5098369;28;20054;-70
2022/03/20 09:19:07;;;;;;;21.55;15.32;;;7.00;80.60;;;;;;5102772;28;20035;-70
2022/03/20 09:21:36;;;;;;;19.60;14.68;;;7.10;78.20;;;;;;5101449;28;20044;-70
2022/03/20 09:24:03;;;;;;;20.67;14.80;;;7.20;78.70;;;;;;5098554;28;20048;-69
2022/03/20 09:26:29;;;;;;;21.60;15.13;;;7.30;80.70;;;;;;5127298;27;20054;-69
2022/03/20 09:28:55;;;;;;;17.88;15.00;;;7.40;76.70;;;;;;5100112;28;20468;-69
2022/03/20 09:31:21;;;;;;;20.92;15.00;;;7.40;74.20;;;;;;5099130;28;20044;-69
2022/03/20 09:33:48;;;;;;;18.80;14.55;;;7.40;75.60;;;;;;5100983;28;20051;-70
2022/03/20 09:36:14;;;;;;;20.77;15.07;;;7.50;73.10;;;;;;5101750;28;20051;-69
2022/03/20 09:38:40;;;;;;;22.10;15.15;;;7.50;73.30;;;;;;5095388;28;20031;-69
2022/03/20 09:41:11;;;;;;;23.48;15.82;;;7.50;73.10;;;;;;5100662;28;20146;-69
2022/03/20 09:43:41;;;;;;;19.20;14.98;;;7.60;72.60;;;;;;5100939;28;20044;-69
2022/03/20 09:46:07;;;;;;;19.45;16.25;;;7.70;73.90;;;;;;5098711;28;20044;-69
2022/03/20 09:48:34;;;;;;;22.67;15.18;;;7.70;72.40;;;;;;5103772;28;20040;-69
2022/03/20 09:51:01;;;;;;;21.98;16.25;;;7.70;72.20;;;;;;5098727;28;20130;-69
2022/03/20 09:53:28;;;;;;;23.02;14.63;;;7.80;71.20;;;;;;5104459;28;20036;-69
2022/03/20 09:55:55;;;;;;;21.17;15.02;;;7.90;69.60;;;;;;5100694;28;20632;-69
2022/03/20 09:58:26;;;;;;;22.08;15.88;;;7.90;71.00;;;;;;5102129;28;20599;-70
2022/03/20 10:00:53;;;;;;;22.25;15.98;;;8.10;69.90;;;;;;5099509;28;20086;-69
2022/03/20 10:03:23;;;;;;;23.80;15.52;;;8.10;68.90;;;;;;5102175;28;20044;-69
2022/03/20 10:06:06;;;;;;;21.67;17.00;;;8.10;68.10;;;;;;5096082;28;20048;-70
2022/03/20 10:08:32;;;;;;;19.92;15.60;;;8.10;68.30;;;;;;5098101;28;20079;-70
2022/03/20 10:11:15;;;;;;;23.55;16.52;;;8.10;67.90;;;;;;5104154;28;20097;-70
2022/03/20 10:14:10;;;;;;;24.90;17.35;;;8.30;68.50;;;;;;5098234;27;20036;-69
2022/03/20 10:16:39;;;;;;;22.90;16.70;;;8.30;68.30;;;;;;5093579;27;20048;-70
2022/03/20 10:19:23;;;;;;;19.92;15.48;;;8.30;67.30;;;;;;5107290;28;20046;-69
2022/03/20 10:22:01;;;;;;;20.10;15.88;;;8.40;67.80;;;;;;5132988;27;20039;-70
2022/03/20 10:24:29;;;;;;;22.17;16.13;;;8.50;66.70;;;;;;5106332;27;20078;-70
2022/03/20 10:27:00;;;;;;;23.05;16.50;;;8.60;67.50;;;;;;5103849;28;20055;-70
2022/03/20 10:29:28;;;;;;;27.15;16.40;;;8.70;68.80;;;;;;5088082;28;20130;-70
2022/03/20 10:31:55;;;;;;;23.20;15.80;;;8.90;66.00;;;;;;5137607;27;20474;-70
2022/03/20 10:34:23;;;;;;;24.55;16.70;;;8.90;65.70;;;;;;5105012;28;20039;-70
2022/03/20 10:36:50;;;;;;;28.77;17.88;;;8.90;64.80;;;;;;5101945;28;20181;-72
2022/03/20 10:39:19;;;;;;;21.42;17.25;;;8.90;66.80;;;;;;5103921;28;20043;-70
2022/03/20 10:41:47;;;;;;;24.25;17.65;;;8.90;64.80;;;;;;5107725;28;20035;-70
2022/03/20 10:44:18;;;;;;;24.98;17.58;;;9.10;65.80;;;;;;5101973;28;20078;-69
2022/03/20 10:47:00;;;;;;;20.20;16.30;;;9.10;66.50;;;;;;5102465;28;20040;-71
2022/03/20 10:49:26;;;;;;;23.55;17.63;;;9.10;67.10;;;;;;5104034;28;20034;-70
2022/03/20 10:52:10;;;;;;;21.02;16.67;;;9.10;64.30;;;;;;5105809;28;20051;-70
2022/03/20 10:54:45;;;;;;;24.70;18.02;;;9.20;64.30;;;;;;5104183;28;20050;-70
2022/03/20 10:57:13;;;;;;;20.83;16.48;;;9.30;63.90;;;;;;5103658;28;20042;-71
2022/03/20 10:59:40;;;;;;;28.05;17.52;;;9.40;64.60;;;;;;5102164;28;20069;-70
2022/03/20 11:02:18;;;;;;;21.65;17.35;;;9.50;65.80;;;;;;5105087;28;20035;-70
2022/03/20 11:04:45;;;;;;;24.70;15.68;;;9.50;63.50;;;;;;5108436;27;20834;-70
2022/03/20 11:07:16;;;;;;;21.38;17.00;;;9.50;62.20;;;;;;5103472;27;20040;-70
2022/03/20 11:09:45;;;;;;;22.23;17.23;;;9.60;64.30;;;;;;5102652;28;20123;-72
2022/03/20 11:12:14;;;;;;;23.73;17.38;;;9.70;63.40;;;;;;5102667;28;20059;-71
2022/03/20 11:14:43;;;;;;;26.52;16.95;;;9.80;63.90;;;;;;5105324;28;20043;-70
2022/03/20 11:17:12;;;;;;;24.73;17.10;;;9.70;62.30;;;;;;5102325;28;20039;-71
2022/03/20 11:19:43;;;;;;;24.85;16.88;;;9.70;61.90;;;;;;5102787;28;20049;-70
2022/03/20 11:22:12;;;;;;;27.13;17.40;;;9.90;63.80;;;;;;5101694;28;20122;-71
2022/03/20 11:24:41;;;;;;;25.05;18.08;;;9.90;62.30;;;;;;5104292;27;20371;-71
2022/03/20 11:27:11;;;;;;;22.83;16.40;;;9.90;61.80;;;;;;5102919;28;20091;-70
2022/03/20 11:29:42;;;;;;;23.23;18.90;;;9.90;61.20;;;;;;5101391;28;20044;-70
2022/03/20 11:32:08;;;;;;;22.88;16.85;;;9.90;63.70;;;;;;5103250;28;20082;-70
2022/03/20 11:34:35;;;;;;;27.48;18.00;;;10.00;62.10;;;;;;5104852;27;20078;-69
2022/03/20 11:37:03;;;;;;;28.58;17.75;;;10.00;61.60;;;;;;5101678;28;20092;-70
2022/03/20 11:39:30;;;;;;;23.60;17.85;;;10.00;63.10;;;;;;5104424;27;20119;-69
2022/03/20 11:42:21;;;;;;;26.38;18.65;;;10.20;63.80;;;;;;5100427;28;20036;-70
2022/03/20 11:45:11;;;;;;;32.15;17.33;;;10.20;60.00;;;;;;5135131;27;20051;-70
2022/03/20 11:47:39;;;;;;;29.58;17.77;;;10.30;61.80;;;;;;5090621;28;21515;-70
2022/03/20 11:50:19;;;;;;;25.23;17.60;;;9.90;61.90;;;;;;5112731;27;20061;-70
2022/03/20 11:53:01;;;;;;;23.45;18.73;;;10.30;59.40;;;;;;5098422;28;20108;-71
2022/03/20 11:55:40;;;;;;;23.50;18.27;;;10.30;62.30;;;;;;5100383;28;20035;-69
2022/03/20 11:58:53;;;;;;;22.60;18.20;;;10.50;61.50;;;;;;5133725;27;20036;-70
2022/03/20 12:01:25;;;;;;;25.25;18.08;;;10.60;61.10;;;;;;5099113;28;20035;-70
2022/03/20 12:03:53;;;;;;;23.58;17.65;;;10.40;60.60;;;;;;5101024;28;20040;-71
2022/03/20 12:06:34;;;;;;;26.33;17.50;;;10.50;61.50;;;;;;5099579;28;20093;-70
2022/03/20 12:09:18;;;;;;;25.20;16.85;;;10.60;60.90;;;;;;5104000;28;20036;-70
2022/03/20 12:12:18;;;;;;;25.23;18.63;;;10.60;61.20;;;;;;5100802;28;20066;-70
2022/03/20 12:14:53;;;;;;;25.33;18.75;;;10.60;60.30;;;;;;5131464;27;20096;-70
2022/03/20 12:17:20;;;;;;;25.83;18.83;;;10.60;61.00;;;;;;5102500;28;20117;-70
2022/03/20 12:19:53;;;;;;;27.30;17.75;;;10.70;59.60;;;;;;5100282;27;20119;-70
2022/03/20 12:22:19;;;;;;;26.40;17.40;;;10.60;59.80;;;;;;5103595;28;20032;-70
2022/03/20 12:24:49;;;;;;;21.88;17.70;;;10.80;60.20;;;;;;5103355;27;20040;-70
2022/03/20 12:27:23;;;;;;;25.33;19.63;;;10.80;59.90;;;;;;5092092;28;20127;-70
2022/03/20 12:30:04;;;;;;;21.80;17.52;;;10.60;59.70;;;;;;5100428;28;20035;-70
2022/03/20 12:32:48;;;;;;;22.85;17.73;;;10.50;58.70;;;;;;5103706;28;20122;-70
2022/03/20 12:35:29;;;;;;;25.40;19.70;;;10.60;60.80;;;;;;5107939;27;20425;-70
2022/03/20 12:37:56;;;;;;;22.85;17.20;;;10.50;59.30;;;;;;5100657;28;20040;-70
2022/03/20 12:40:29;;;;;;;25.67;17.58;;;10.50;60.20;;;;;;5099807;28;20036;-70
2022/03/20 12:43:09;;;;;;;25.13;19.38;;;10.50;60.60;;;;;;5129858;27;20086;-67
2022/03/20 12:45:44;;;;;;;21.67;18.15;;;10.40;60.40;;;;;;5104292;28;20497;-68
2022/03/20 12:48:10;;;;;;;22.13;18.52;;;10.40;61.30;;;;;;5134309;27;20044;-71
2022/03/20 12:50:37;;;;;;;27.05;18.42;;;10.40;61.30;;;;;;5098367;28;20127;-71
2022/03/20 12:53:06;;;;;;;22.70;17.13;;;10.50;61.40;;;;;;5099950;28;20042;-72
2022/03/20 12:55:32;;;;;;;24.67;18.77;;;10.50;61.50;;;;;;5104336;28;20402;-71
2022/03/20 12:57:58;;;;;;;23.20;18.10;;;10.60;62.50;;;;;;5130050;27;20039;-70
2022/03/20 13:00:27;;;;;;;27.08;19.05;;;10.80;62.40;;;;;;5102065;28;20126;-71
2022/03/20 13:03:08;;;;;;;27.10;19.25;;;10.80;61.80;;;;;;5099235;28;20040;-71
2022/03/20 13:05:40;;;;;;;24.27;17.75;;;10.70;60.30;;;;;;5101051;28;20074;-71
2022/03/20 13:08:07;;;;;;;23.15;18.80;;;10.70;59.90;;;;;;5099336;28;20080;-71
2022/03/20 13:10:42;;;;;;;26.65;19.77;;;10.70;60.60;;;;;;5100317;28;20105;-70
2022/03/20 13:13:08;;;;;;;24.25;18.42;;;10.70;61.80;;;;;;5104114;28;20039;-71
2022/03/20 13:15:36;;;;;;;26.58;18.75;;;10.60;62.30;;;;;;5101396;28;20100;-70
2022/03/20 13:18:04;;;;;;;23.75;18.15;;;10.60;61.00;;;;;;5069916;28;20067;-68
2022/03/20 13:20:33;;;;;;;28.25;20.50;;;10.60;61.60;;;;;;5098986;28;20443;-68
2022/03/20 13:23:08;;;;;;;24.25;17.50;;;10.50;61.40;;;;;;5103294;28;20137;-75
2022/03/20 13:25:48;;;;;;;24.38;18.08;;;10.50;61.90;;;;;;5102239;28;20397;-71